LEVXLESO

Guest
Details From LEVX - Vigo
To LESO - San_Sebastian
Flight Number -
Tags generated
Created
Modified
Stats Distance 314 nm / 581 km
Max Altitude 35,000 ft / 10,668 m
Waypoints 6
Social Downloads 1
Likes 0
Share VATSIM

Download

Looking for another format? Having issues loading an existing format? Contact us
Advertisement - Login to hide

Notes

Basic altitude profile: - Ascent Rate: 2500ft/min - Ascent Speed: 250kts - Cruise Altitude: 35000ft - Cruise Speed: 420kts - Descent Rate: 1500ft/min - Descent Speed: 250kts Options: - Use NATs: yes - Use PACOTS: yes - Use low airways: yes - Use high airways: yes

Route

LEVX KORET UN725 NUBLO TITAN LESO

ID Type Via Altitude Latitude Longitude Leg Dist Tot Dist Heading (true) Name
O LEVX APT - 0 ft / 0 m 42.23189˚ -8.62677˚ - 0 nm - Vigo
KORET FIX - 35,000 ft / 10,668 m 42.79763˚ -6.55014˚ 98 nm 98 nm 69° / 70° -
VEDER FIX UN725 (AWY-HI) 35,000 ft / 10,668 m 42.74296˚ -5.86964˚ 30 nm 128 nm 96° / 96° -
NUBLO FIX UN725 (AWY-HI) 31,400 ft / 9,571 m 42.66598˚ -4.98888˚ 39 nm 167 nm 96° / 97° -
TITAN FIX - 21,100 ft / 6,431 m 42.95778˚ -3.97502˚ 47 nm 215 nm 68° / 69° -
O LESO APT - 0 ft / 0 m 43.35652˚ -1.79061˚ 98 nm 313 nm 75° / 77° San_Sebastian

Altitude Profile

Advertisement - Login to hide

Weather


0- 5 10 15 20 25 30 35+ Temperature / ° C

Clouds and Precipitation
Forecast for 2017-12-16 06:00 UTC. Updated 28 minutes ago

Ground ~20,000 ft ~40,000 ft Winds

LEVX

Details ICAO LEVX (VGO)
Name Vigo
Region Spain
Timezone Europe/Madrid (UTC+1.0)
Stats Elevation 855 ft / 261 m (AMSL)
Location 42.231894° -8.626774°
Runways 1
Magnetic Variation 2.390° W

METAR

LEVX 160530Z VRB01KT CAVOK 04/04 Q1023 NOSIG

Decode

TAF

TAF LEVX 152300Z 1600/1624 VRB04KT CAVOK TX11/1615Z TN02/1608Z TEMPO 1612/1624 01010KT

Decode

Departure Runways

ID Width Length Bearing (true) Bearing (mag) Surface Threshold Offset Overrun Length
02 148 ft / 45 m 7,905 ft / 2,409 m 11.38° 13.77° Asphalt 0 ft / 0 m 164 ft / 50 m
20 148 ft / 45 m 7,905 ft / 2,409 m 191.38° 193.77° Asphalt 0 ft / 0 m 164 ft / 50 m

LESO

Details ICAO LESO (EAS)
Name San_Sebastian
Region Spain
Timezone Europe/Madrid (UTC+1.0)
Stats Elevation 14 ft / 4 m (AMSL)
Location 43.356520° -1.790611°
Runways 1
Magnetic Variation 0.297° W

METAR

LESO 160530Z 02007KT 320V060 9999 -RA BKN040 09/06 Q1018

Decode

TAF

TAF LESO 152300Z 1600/1624 27008KT 9999 SCT030 BKN050 TX11/1614Z TN05/1607Z TEMPO 1600/1609 30015G25KT TEMPO 1600/1624 RA TEMPO 1600/1612 3000 SHRA SCT030TCU PROB30 TEMPO 1600/1612 TS SHGR SCT030CB

Decode

Destination Runways

ID Width Length Bearing (true) Bearing (mag) Surface Threshold Offset Overrun Length
04 148 ft / 45 m 5,762 ft / 1,756 m 38.68° 38.98° Asphalt 0 ft / 0 m 0 ft / 0 m
22 148 ft / 45 m 5,762 ft / 1,756 m 218.69° 218.99° Asphalt 0 ft / 0 m 0 ft / 0 m

Popular Alternatives